Terminal Aerodrome Forecast
Issued by NWS

Current Version | Previous Version | Text Only | Print | Product List | Glossary On
Versions: 1 2 3 4 5 6 7 8 9 10 11 12 13 14 15 16 17 18 19 20 21 22 23 24 25 26 27 28 29 30 31 32
000
FTUS46 KLOX 180800 AAA
TAFLAX
TAF AMD
KLAX 180855Z 1809/1912 VRB03KT P6SM SCT025 SCT100
     FM181200 VRB03KT P6SM VCSH SCT025 BKN070
     FM181800 VRB03KT P6SM SCT035 SCT050
     FM182100 27009KT P6SM SCT035 SCT050
     FM190300 VRB03KT P6SM SCT025 SCT050
     FM191000 VRB03KT 5SM BR SCT025 SCT050=

USA.gov is the U.S. government's official web portal to all federal, state and local government web resources and services.